Lunderskov, Denmark
Current Conditions -  °F | °C
As of 1:50 PM on Saturday 20 Dec 2014 (Local Time) from EKSP Reporting Station
Rain Showers Rain Showers  
Wind Chill: 30°   Ceiling: Unl
Heat Index: 39°   Visibility: 6mi
Dew Point: 36°   Wind: 20mph
Humidity: 87%   Direction: 290°WNW
Pressure: 29.53"   Gusts: 35mph
Location:  55.48°N, 9.3°E
Report Text: EKSP 201250Z 29017G30KT 240V330 9999 -SHRA SCT015CB SCT04004/02 Q1000
Loading
Personal Weather Stations






























Interactive Weather Map New forecast layout! Learn more

10-Day Weather Forecast

Advertisements
Track Severe Weather on mobile